Farmington, NM

11:23 AM MST on December 26, 2014 (GMT -0700)
Durango-La Plata County | Change Station
CLOSE
Current Station
Airport
Location: Durango,
Elevation: 6683 ft
Nearby Weather Stations
Active Advisory: Winter Weather Advisory Active Notice: Public Information Statement

Elev 6683 ft 37.14 °N, 107.76 °W | Updated 7 minutes ago

Mostly Cloudy
Mostly Cloudy
24 °F
Feels Like 12 °F
N
13
Wind Variable Wind from WSW

Today
High -- | Low -- °F
--% Chance of Precip.
Yesterday
High -- | Low -- °F
Precip. -- in
7:23 AM 5:03 PM
Waxing Crescent, 28% visible
Pressure 29.73 in
Visibility 10.0 miles
Clouds Mostly Cloudy 1400 ft
Overcast 5000 ft
Windchill 12 °F
Dew Point 20 °F
Humidity 84%
Rainfall 0.08 in
Snow Depth Not available.
UV 1 out of 12
Pollen .40 out of 12
Air Quality Not available.
Flu Activity Not available.
SPECI KDRO 261816Z AUTO 24011KT 10SM BKN014 OVC050 M04/M07 A2973 RMK AO2 SNE1758 P0000 T10441067

More Conditions Fewer Conditions

Pressure 29.73 in
Visibility 10.0 miles
Clouds Mostly Cloudy 1400 ft
Overcast 5000 ft
Windchill 12 °F
Dew Point 20 °F
Humidity 84%
Rainfall 0.08 in
Snow Depth Not available.
UV 1 out of 12
Pollen .40 out of 12
Air Quality Not available.
Flu Activity Not available.
SPECI KDRO 261816Z AUTO 24011KT 10SM BKN014 OVC050 M04/M07 A2973 RMK AO2 SNE1758 P0000 T10441067

More Conditions Fewer Conditions

Nowcast | as of 9:49 am MST on December 26, 2014

Scattered snow showers will be found over most of the western and northwestern high terrain through midday...along with areas of fog. Visibilities in snow and fog will vary from around 1 to 3 miles. Additional snow accumulations will range from a dusting to around 1 to 2 inches in the heavier showers. Roads over the region may be snowpacked and icy...especially across the higher terrain. For the latest New Mexico Road conditions visit nmroads.Com or call 5 1 1.

×

10-Day Weather Forecast

Almanac

Astronomy

Dec. 26, 2014 Rise Set
Actual Time
Civil Twilight
Nautical Twilight
Astronomical Twilight
Moon
Length of Visible Light
Length of Day
Tomorrow will be .
, % of the Moon is Illuminated

Today's Extremes

State Highs State Lows

Community

WunderPhotos

Upload Photos

1,780,661 photos uploaded!

WunderBlogs® & News

Nearby

Air Quality

  Air Quality AQ Index Pollutant
Not available.

Snow Depth

Station Depth Elevation

Earthquake Activity

City Distance Mag. Time & Date
Minimum magnitude displayed is 2.5.

Coastal Water Temperatures

Place Temperature

Nearby Weather Stations